sensor_id;sensor_type;location;lat;lon;timestamp;temperature;humidity
12384;DHT22;6256;63.808;20.336;2023-06-01T00:01:14;5.00;78.60
12384;DHT22;6256;63.808;20.336;2023-06-01T00:03:39;4.90;79.20
12384;DHT22;6256;63.808;20.336;2023-06-01T00:06:05;4.90;80.40
12384;DHT22;6256;63.808;20.336;2023-06-01T00:08:31;4.90;80.30
12384;DHT22;6256;63.808;20.336;2023-06-01T00:13:24;4.70;80.10
12384;DHT22;6256;63.808;20.336;2023-06-01T00:15:50;4.70;81.30
12384;DHT22;6256;63.808;20.336;2023-06-01T00:18:16;4.70;80.50
12384;DHT22;6256;63.808;20.336;2023-06-01T00:20:42;4.60;80.10
12384;DHT22;6256;63.808;20.336;2023-06-01T00:23:10;4.60;80.90
12384;DHT22;6256;63.808;20.336;2023-06-01T00:25:36;4.50;80.70
12384;DHT22;6256;63.808;20.336;2023-06-01T00:28:02;4.50;80.80
12384;DHT22;6256;63.808;20.336;2023-06-01T00:30:28;4.50;81.30
12384;DHT22;6256;63.808;20.336;2023-06-01T00:32:54;4.40;83.00
12384;DHT22;6256;63.808;20.336;2023-06-01T00:35:20;4.30;81.80
12384;DHT22;6256;63.808;20.336;2023-06-01T00:37:45;4.30;82.60
12384;DHT22;6256;63.808;20.336;2023-06-01T00:40:11;4.30;82.20
12384;DHT22;6256;63.808;20.336;2023-06-01T00:42:37;4.20;82.90
12384;DHT22;6256;63.808;20.336;2023-06-01T00:45:06;4.30;83.90
12384;DHT22;6256;63.808;20.336;2023-06-01T00:47:40;4.20;83.60
12384;DHT22;6256;63.808;20.336;2023-06-01T00:50:11;4.20;82.40
12384;DHT22;6256;63.808;20.336;2023-06-01T00:52:37;4.10;83.30
12384;DHT22;6256;63.808;20.336;2023-06-01T00:55:05;4.20;84.60
12384;DHT22;6256;63.808;20.336;2023-06-01T00:57:32;4.10;84.70
12384;DHT22;6256;63.808;20.336;2023-06-01T00:59:58;4.10;85.30
12384;DHT22;6256;63.808;20.336;2023-06-01T01:02:24;4.00;85.30
12384;DHT22;6256;63.808;20.336;2023-06-01T01:04:50;4.00;85.50
12384;DHT22;6256;63.808;20.336;2023-06-01T01:07:32;4.00;85.80
12384;DHT22;6256;63.808;20.336;2023-06-01T01:16:00;3.90;87.50
12384;DHT22;6256;63.808;20.336;2023-06-01T01:18:36;3.90;87.90
12384;DHT22;6256;63.808;20.336;2023-06-01T01:21:09;3.90;88.50
12384;DHT22;6256;63.808;20.336;2023-06-01T01:29:09;3.80;90.00
12384;DHT22;6256;63.808;20.336;2023-06-01T01:31:38;3.80;90.20
12384;DHT22;6256;63.808;20.336;2023-06-01T01:34:05;3.80;90.40
12384;DHT22;6256;63.808;20.336;2023-06-01T01:36:31;3.80;90.30
12384;DHT22;6256;63.808;20.336;2023-06-01T01:38:57;3.80;90.90
12384;DHT22;6256;63.808;20.336;2023-06-01T01:41:23;3.80;90.70
12384;DHT22;6256;63.808;20.336;2023-06-01T01:43:49;3.70;90.60
12384;DHT22;6256;63.808;20.336;2023-06-01T01:46:23;3.80;90.60
12384;DHT22;6256;63.808;20.336;2023-06-01T01:51:40;3.70;90.80
12384;DHT22;6256;63.808;20.336;2023-06-01T01:55:12;3.70;91.00
12384;DHT22;6256;63.808;20.336;2023-06-01T01:57:38;3.70;90.90
12384;DHT22;6256;63.808;20.336;2023-06-01T02:00:08;3.70;90.80
12384;DHT22;6256;63.808;20.336;2023-06-01T02:02:34;3.70;90.80
12384;DHT22;6256;63.808;20.336;2023-06-01T02:05:00;3.70;91.30
12384;DHT22;6256;63.808;20.336;2023-06-01T02:07:25;3.70;91.10
12384;DHT22;6256;63.808;20.336;2023-06-01T02:09:51;3.70;91.20
12384;DHT22;6256;63.808;20.336;2023-06-01T02:12:17;3.60;91.00
12384;DHT22;6256;63.808;20.336;2023-06-01T02:14:42;3.60;91.40
12384;DHT22;6256;63.808;20.336;2023-06-01T02:17:08;3.60;91.00
12384;DHT22;6256;63.808;20.336;2023-06-01T02:19:34;3.60;90.80
12384;DHT22;6256;63.808;20.336;2023-06-01T02:22:00;3.70;91.20
12384;DHT22;6256;63.808;20.336;2023-06-01T02:24:25;3.70;91.00
12384;DHT22;6256;63.808;20.336;2023-06-01T02:26:51;3.70;90.50
12384;DHT22;6256;63.808;20.336;2023-06-01T02:29:20;3.70;90.10
12384;DHT22;6256;63.808;20.336;2023-06-01T02:31:48;3.70;89.30
12384;DHT22;6256;63.808;20.336;2023-06-01T02:34:15;3.70;90.20
12384;DHT22;6256;63.808;20.336;2023-06-01T02:36:40;3.80;89.80
12384;DHT22;6256;63.808;20.336;2023-06-01T02:39:06;3.80;90.00
12384;DHT22;6256;63.808;20.336;2023-06-01T02:41:32;3.80;89.70
12384;DHT22;6256;63.808;20.336;2023-06-01T02:43:58;3.80;89.20
12384;DHT22;6256;63.808;20.336;2023-06-01T02:46:24;3.80;89.20
12384;DHT22;6256;63.808;20.336;2023-06-01T02:48:50;3.90;89.90
12384;DHT22;6256;63.808;20.336;2023-06-01T02:51:16;3.90;89.60
12384;DHT22;6256;63.808;20.336;2023-06-01T02:53:44;3.90;88.70
12384;DHT22;6256;63.808;20.336;2023-06-01T02:56:10;3.90;89.00
12384;DHT22;6256;63.808;20.336;2023-06-01T02:58:36;4.00;88.70
12384;DHT22;6256;63.808;20.336;2023-06-01T03:01:01;3.90;88.60
12384;DHT22;6256;63.808;20.336;2023-06-01T03:03:27;4.00;88.70
12384;DHT22;6256;63.808;20.336;2023-06-01T03:05:54;4.00;89.20
12384;DHT22;6256;63.808;20.336;2023-06-01T03:08:20;4.10;89.90
12384;DHT22;6256;63.808;20.336;2023-06-01T03:10:47;4.10;88.50
12384;DHT22;6256;63.808;20.336;2023-06-01T03:13:13;4.10;89.00
12384;DHT22;6256;63.808;20.336;2023-06-01T03:15:38;4.20;89.10
12384;DHT22;6256;63.808;20.336;2023-06-01T03:18:04;4.20;88.80
12384;DHT22;6256;63.808;20.336;2023-06-01T03:20:34;4.30;88.20
12384;DHT22;6256;63.808;20.336;2023-06-01T03:23:00;4.30;89.60
12384;DHT22;6256;63.808;20.336;2023-06-01T03:25:26;4.30;88.40
12384;DHT22;6256;63.808;20.336;2023-06-01T03:27:52;4.40;88.90
12384;DHT22;6256;63.808;20.336;2023-06-01T03:30:18;4.40;88.50
12384;DHT22;6256;63.808;20.336;2023-06-01T03:32:44;4.40;88.10
12384;DHT22;6256;63.808;20.336;2023-06-01T03:35:13;4.50;88.70
12384;DHT22;6256;63.808;20.336;2023-06-01T03:37:41;4.50;88.40
12384;DHT22;6256;63.808;20.336;2023-06-01T03:40:08;4.60;87.70
12384;DHT22;6256;63.808;20.336;2023-06-01T03:42:44;4.60;87.10
12384;DHT22;6256;63.808;20.336;2023-06-01T03:45:12;4.70;86.70
12384;DHT22;6256;63.808;20.336;2023-06-01T03:47:39;4.70;88.10
12384;DHT22;6256;63.808;20.336;2023-06-01T03:50:06;4.80;87.10
12384;DHT22;6256;63.808;20.336;2023-06-01T03:52:33;4.90;87.20
12384;DHT22;6256;63.808;20.336;2023-06-01T03:55:00;5.00;87.20
12384;DHT22;6256;63.808;20.336;2023-06-01T03:57:36;5.00;86.60
12384;DHT22;6256;63.808;20.336;2023-06-01T04:00:06;5.10;87.00
12384;DHT22;6256;63.808;20.336;2023-06-01T04:02:48;5.20;87.10
12384;DHT22;6256;63.808;20.336;2023-06-01T04:05:15;5.30;86.60
12384;DHT22;6256;63.808;20.336;2023-06-01T04:07:49;5.40;86.30
12384;DHT22;6256;63.808;20.336;2023-06-01T04:10:15;5.50;84.90
12384;DHT22;6256;63.808;20.336;2023-06-01T04:12:43;5.60;84.90
12384;DHT22;6256;63.808;20.336;2023-06-01T04:15:10;5.70;83.70
12384;DHT22;6256;63.808;20.336;2023-06-01T04:17:40;5.80;83.80
12384;DHT22;6256;63.808;20.336;2023-06-01T04:20:11;5.90;85.10
12384;DHT22;6256;63.808;20.336;2023-06-01T04:22:38;5.80;83.90
12384;DHT22;6256;63.808;20.336;2023-06-01T04:25:06;5.90;84.00
12384;DHT22;6256;63.808;20.336;2023-06-01T04:27:33;5.90;83.00
12384;DHT22;6256;63.808;20.336;2023-06-01T04:30:06;5.90;82.70
12384;DHT22;6256;63.808;20.336;2023-06-01T04:32:36;5.90;82.80
12384;DHT22;6256;63.808;20.336;2023-06-01T04:35:05;6.00;82.40
12384;DHT22;6256;63.808;20.336;2023-06-01T04:37:35;6.00;83.10
12384;DHT22;6256;63.808;20.336;2023-06-01T04:40:02;5.90;82.70
12384;DHT22;6256;63.808;20.336;2023-06-01T04:42:32;5.90;83.00
12384;DHT22;6256;63.808;20.336;2023-06-01T04:44:59;5.70;82.50
12384;DHT22;6256;63.808;20.336;2023-06-01T04:47:25;5.70;82.80
12384;DHT22;6256;63.808;20.336;2023-06-01T04:49:52;5.70;83.50
12384;DHT22;6256;63.808;20.336;2023-06-01T04:52:18;5.80;84.80
12384;DHT22;6256;63.808;20.336;2023-06-01T04:54:45;5.80;83.80
12384;DHT22;6256;63.808;20.336;2023-06-01T04:57:11;5.90;83.50
12384;DHT22;6256;63.808;20.336;2023-06-01T04:59:40;5.90;83.30
12384;DHT22;6256;63.808;20.336;2023-06-01T05:02:07;5.80;83.50
12384;DHT22;6256;63.808;20.336;2023-06-01T05:04:33;5.90;83.20
12384;DHT22;6256;63.808;20.336;2023-06-01T05:06:59;6.00;83.60
12384;DHT22;6256;63.808;20.336;2023-06-01T05:09:25;6.20;84.70
12384;DHT22;6256;63.808;20.336;2023-06-01T05:11:51;6.10;82.50
12384;DHT22;6256;63.808;20.336;2023-06-01T05:14:17;6.00;82.20
12384;DHT22;6256;63.808;20.336;2023-06-01T05:16:43;5.90;81.50
12384;DHT22;6256;63.808;20.336;2023-06-01T05:19:08;6.00;84.10
12384;DHT22;6256;63.808;20.336;2023-06-01T05:21:34;6.20;82.90
12384;DHT22;6256;63.808;20.336;2023-06-01T05:24:00;6.10;84.10
12384;DHT22;6256;63.808;20.336;2023-06-01T05:26:26;6.10;82.80
12384;DHT22;6256;63.808;20.336;2023-06-01T05:28:52;6.00;83.20
12384;DHT22;6256;63.808;20.336;2023-06-01T05:31:18;5.90;83.10
12384;DHT22;6256;63.808;20.336;2023-06-01T05:33:44;5.80;84.40
12384;DHT22;6256;63.808;20.336;2023-06-01T05:36:10;5.80;85.00
12384;DHT22;6256;63.808;20.336;2023-06-01T05:38:36;5.80;85.40
12384;DHT22;6256;63.808;20.336;2023-06-01T05:41:03;5.80;85.30
12384;DHT22;6256;63.808;20.336;2023-06-01T05:43:29;5.90;86.10
12384;DHT22;6256;63.808;20.336;2023-06-01T05:45:55;6.00;84.50
12384;DHT22;6256;63.808;20.336;2023-06-01T05:48:21;6.20;83.20
12384;DHT22;6256;63.808;20.336;2023-06-01T05:50:46;6.20;82.10
12384;DHT22;6256;63.808;20.336;2023-06-01T05:53:12;6.30;82.30
12384;DHT22;6256;63.808;20.336;2023-06-01T05:55:38;6.40;82.40
12384;DHT22;6256;63.808;20.336;2023-06-01T05:58:04;6.50;82.50
12384;DHT22;6256;63.808;20.336;2023-06-01T06:00:30;6.60;80.50
12384;DHT22;6256;63.808;20.336;2023-06-01T06:02:55;6.60;79.70
12384;DHT22;6256;63.808;20.336;2023-06-01T06:05:21;6.70;81.70
12384;DHT22;6256;63.808;20.336;2023-06-01T06:07:47;6.80;79.00
12384;DHT22;6256;63.808;20.336;2023-06-01T06:10:13;6.90;79.20
12384;DHT22;6256;63.808;20.336;2023-06-01T06:12:39;7.20;78.60
12384;DHT22;6256;63.808;20.336;2023-06-01T06:15:05;7.20;75.30
12384;DHT22;6256;63.808;20.336;2023-06-01T06:17:31;7.40;76.60
12384;DHT22;6256;63.808;20.336;2023-06-01T06:19:57;7.70;75.70
12384;DHT22;6256;63.808;20.336;2023-06-01T06:22:22;7.70;75.00
12384;DHT22;6256;63.808;20.336;2023-06-01T06:24:48;7.40;73.80
12384;DHT22;6256;63.808;20.336;2023-06-01T06:27:14;6.90;75.00
12384;DHT22;6256;63.808;20.336;2023-06-01T06:29:41;7.00;76.50
12384;DHT22;6256;63.808;20.336;2023-06-01T06:32:07;6.80;75.80
12384;DHT22;6256;63.808;20.336;2023-06-01T06:34:32;6.80;74.90
12384;DHT22;6256;63.808;20.336;2023-06-01T06:37:05;6.60;77.20
12384;DHT22;6256;63.808;20.336;2023-06-01T06:39:32;6.40;75.30
12384;DHT22;6256;63.808;20.336;2023-06-01T06:42:00;6.30;77.50
12384;DHT22;6256;63.808;20.336;2023-06-01T06:44:31;6.50;79.20
12384;DHT22;6256;63.808;20.336;2023-06-01T06:46:59;6.50;80.00
12384;DHT22;6256;63.808;20.336;2023-06-01T06:49:26;6.30;78.30
12384;DHT22;6256;63.808;20.336;2023-06-01T06:51:51;6.20;79.30
12384;DHT22;6256;63.808;20.336;2023-06-01T06:54:17;6.20;81.00
12384;DHT22;6256;63.808;20.336;2023-06-01T06:56:43;6.30;79.00
12384;DHT22;6256;63.808;20.336;2023-06-01T06:59:10;6.10;78.50
12384;DHT22;6256;63.808;20.336;2023-06-01T07:01:35;6.30;78.80
12384;DHT22;6256;63.808;20.336;2023-06-01T07:04:03;6.50;80.00
12384;DHT22;6256;63.808;20.336;2023-06-01T07:06:30;6.70;78.00
12384;DHT22;6256;63.808;20.336;2023-06-01T07:08:55;6.90;77.10
12384;DHT22;6256;63.808;20.336;2023-06-01T07:11:22;7.00;76.80
12384;DHT22;6256;63.808;20.336;2023-06-01T07:13:49;7.10;75.10
12384;DHT22;6256;63.808;20.336;2023-06-01T07:16:14;7.30;74.10
12384;DHT22;6256;63.808;20.336;2023-06-01T07:18:40;7.60;73.30
12384;DHT22;6256;63.808;20.336;2023-06-01T07:21:06;7.80;71.70
12384;DHT22;6256;63.808;20.336;2023-06-01T07:23:31;7.90;72.10
12384;DHT22;6256;63.808;20.336;2023-06-01T07:25:57;8.30;72.20
12384;DHT22;6256;63.808;20.336;2023-06-01T07:28:23;8.40;68.60
12384;DHT22;6256;63.808;20.336;2023-06-01T07:30:53;8.40;63.20
12384;DHT22;6256;63.808;20.336;2023-06-01T07:33:19;8.00;61.80
12384;DHT22;6256;63.808;20.336;2023-06-01T07:35:45;7.80;62.60
12384;DHT22;6256;63.808;20.336;2023-06-01T07:38:11;7.80;63.10
12384;DHT22;6256;63.808;20.336;2023-06-01T07:40:37;7.80;62.50
12384;DHT22;6256;63.808;20.336;2023-06-01T07:43:03;8.00;62.00
12384;DHT22;6256;63.808;20.336;2023-06-01T07:45:29;8.10;60.60
12384;DHT22;6256;63.808;20.336;2023-06-01T07:47:55;8.30;64.00
12384;DHT22;6256;63.808;20.336;2023-06-01T07:50:20;8.60;62.60
12384;DHT22;6256;63.808;20.336;2023-06-01T07:52:47;8.70;61.20
12384;DHT22;6256;63.808;20.336;2023-06-01T07:55:13;9.00;63.10
12384;DHT22;6256;63.808;20.336;2023-06-01T07:57:40;8.90;62.00
12384;DHT22;6256;63.808;20.336;2023-06-01T08:00:06;8.80;61.20
12384;DHT22;6256;63.808;20.336;2023-06-01T08:02:37;8.80;60.30
12384;DHT22;6256;63.808;20.336;2023-06-01T08:05:02;8.50;59.30
12384;DHT22;6256;63.808;20.336;2023-06-01T08:07:28;8.50;60.30
12384;DHT22;6256;63.808;20.336;2023-06-01T08:09:55;8.60;60.00
12384;DHT22;6256;63.808;20.336;2023-06-01T08:12:23;8.50;59.10
12384;DHT22;6256;63.808;20.336;2023-06-01T08:14:48;8.60;60.00
12384;DHT22;6256;63.808;20.336;2023-06-01T08:17:14;8.40;59.00
12384;DHT22;6256;63.808;20.336;2023-06-01T08:19:40;8.40;58.90
12384;DHT22;6256;63.808;20.336;2023-06-01T08:22:09;8.40;59.30
12384;DHT22;6256;63.808;20.336;2023-06-01T08:24:37;8.50;58.70
12384;DHT22;6256;63.808;20.336;2023-06-01T08:27:15;8.70;58.30
12384;DHT22;6256;63.808;20.336;2023-06-01T08:29:41;9.20;61.50
12384;DHT22;6256;63.808;20.336;2023-06-01T08:32:06;9.50;59.00
12384;DHT22;6256;63.808;20.336;2023-06-01T08:34:32;9.50;58.80
12384;DHT22;6256;63.808;20.336;2023-06-01T08:37:01;9.30;56.40
12384;DHT22;6256;63.808;20.336;2023-06-01T08:39:26;9.40;58.40
12384;DHT22;6256;63.808;20.336;2023-06-01T08:42:09;8.90;57.10
12384;DHT22;6256;63.808;20.336;2023-06-01T08:44:38;8.50;57.30
12384;DHT22;6256;63.808;20.336;2023-06-01T08:47:04;8.70;57.00
12384;DHT22;6256;63.808;20.336;2023-06-01T08:49:32;9.00;56.10
12384;DHT22;6256;63.808;20.336;2023-06-01T08:52:01;9.20;55.40
12384;DHT22;6256;63.808;20.336;2023-06-01T08:54:28;9.80;57.30
12384;DHT22;6256;63.808;20.336;2023-06-01T08:56:58;10.40;56.40
12384;DHT22;6256;63.808;20.336;2023-06-01T08:59:24;10.20;56.90
12384;DHT22;6256;63.808;20.336;2023-06-01T09:01:50;9.70;57.40
12384;DHT22;6256;63.808;20.336;2023-06-01T09:04:18;9.50;58.10
12384;DHT22;6256;63.808;20.336;2023-06-01T09:06:44;9.60;59.60
12384;DHT22;6256;63.808;20.336;2023-06-01T09:09:10;9.60;61.20
12384;DHT22;6256;63.808;20.336;2023-06-01T09:11:38;10.00;58.20
12384;DHT22;6256;63.808;20.336;2023-06-01T09:14:24;10.00;55.00
12384;DHT22;6256;63.808;20.336;2023-06-01T09:16:50;10.20;57.40
12384;DHT22;6256;63.808;20.336;2023-06-01T09:19:17;10.70;57.90
12384;DHT22;6256;63.808;20.336;2023-06-01T09:21:59;10.80;56.70
12384;DHT22;6256;63.808;20.336;2023-06-01T09:24:25;10.10;54.60
12384;DHT22;6256;63.808;20.336;2023-06-01T09:26:58;9.50;56.60
12384;DHT22;6256;63.808;20.336;2023-06-01T09:29:25;9.60;57.90
12384;DHT22;6256;63.808;20.336;2023-06-01T09:31:52;10.00;58.60
12384;DHT22;6256;63.808;20.336;2023-06-01T09:34:20;10.20;56.20
12384;DHT22;6256;63.808;20.336;2023-06-01T09:36:53;10.40;56.40
12384;DHT22;6256;63.808;20.336;2023-06-01T09:39:23;10.70;56.00
12384;DHT22;6256;63.808;20.336;2023-06-01T09:41:57;10.50;55.90
12384;DHT22;6256;63.808;20.336;2023-06-01T09:44:38;10.50;55.70
12384;DHT22;6256;63.808;20.336;2023-06-01T09:47:06;10.10;56.80
12384;DHT22;6256;63.808;20.336;2023-06-01T09:49:35;10.00;59.50
12384;DHT22;6256;63.808;20.336;2023-06-01T09:54:40;10.20;58.30
12384;DHT22;6256;63.808;20.336;2023-06-01T09:57:07;10.50;59.00
12384;DHT22;6256;63.808;20.336;2023-06-01T09:59:43;10.70;57.20
12384;DHT22;6256;63.808;20.336;2023-06-01T10:02:14;10.50;56.50
12384;DHT22;6256;63.808;20.336;2023-06-01T10:04:42;10.60;57.50
12384;DHT22;6256;63.808;20.336;2023-06-01T10:07:09;10.70;56.40
12384;DHT22;6256;63.808;20.336;2023-06-01T10:09:38;11.20;57.40
12384;DHT22;6256;63.808;20.336;2023-06-01T10:12:04;11.50;57.50
12384;DHT22;6256;63.808;20.336;2023-06-01T10:14:30;11.10;57.00
12384;DHT22;6256;63.808;20.336;2023-06-01T10:16:57;11.50;58.40
12384;DHT22;6256;63.808;20.336;2023-06-01T10:19:24;11.50;58.50
12384;DHT22;6256;63.808;20.336;2023-06-01T10:21:50;11.30;57.90
12384;DHT22;6256;63.808;20.336;2023-06-01T10:24:19;11.50;58.40
12384;DHT22;6256;63.808;20.336;2023-06-01T10:29:34;12.80;58.60
12384;DHT22;6256;63.808;20.336;2023-06-01T10:32:00;11.90;56.30
12384;DHT22;6256;63.808;20.336;2023-06-01T10:34:39;11.40;61.20
12384;DHT22;6256;63.808;20.336;2023-06-01T10:39:32;10.40;63.40
12384;DHT22;6256;63.808;20.336;2023-06-01T10:44:49;10.30;64.20
12384;DHT22;6256;63.808;20.336;2023-06-01T10:57:46;9.90;67.40
12384;DHT22;6256;63.808;20.336;2023-06-01T11:00:21;8.60;76.90
12384;DHT22;6256;63.808;20.336;2023-06-01T11:13:36;10.20;89.90
12384;DHT22;6256;63.808;20.336;2023-06-01T11:18:57;11.50;82.00
12384;DHT22;6256;63.808;20.336;2023-06-01T11:21:29;11.30;77.90
12384;DHT22;6256;63.808;20.336;2023-06-01T11:23:57;11.00;80.00
12384;DHT22;6256;63.808;20.336;2023-06-01T11:26:32;10.70;74.40
12384;DHT22;6256;63.808;20.336;2023-06-01T11:29:22;9.90;75.30
12384;DHT22;6256;63.808;20.336;2023-06-01T11:31:56;9.70;74.30
12384;DHT22;6256;63.808;20.336;2023-06-01T11:34:36;9.20;74.50
12384;DHT22;6256;63.808;20.336;2023-06-01T11:37:14;9.10;74.60
12384;DHT22;6256;63.808;20.336;2023-06-01T11:39:40;9.10;74.40
12384;DHT22;6256;63.808;20.336;2023-06-01T11:42:06;9.00;75.50
12384;DHT22;6256;63.808;20.336;2023-06-01T11:44:33;8.00;92.80
12384;DHT22;6256;63.808;20.336;2023-06-01T11:46:59;7.60;95.40
12384;DHT22;6256;63.808;20.336;2023-06-01T11:49:26;7.10;97.90
12384;DHT22;6256;63.808;20.336;2023-06-01T11:51:52;7.80;99.60
12384;DHT22;6256;63.808;20.336;2023-06-01T11:54:26;9.00;99.90
12384;DHT22;6256;63.808;20.336;2023-06-01T11:56:52;9.40;96.40
12384;DHT22;6256;63.808;20.336;2023-06-01T11:59:19;9.60;97.00
12384;DHT22;6256;63.808;20.336;2023-06-01T12:01:46;9.90;96.50
12384;DHT22;6256;63.808;20.336;2023-06-01T12:04:17;10.20;94.10
12384;DHT22;6256;63.808;20.336;2023-06-01T12:06:43;10.60;94.00
12384;DHT22;6256;63.808;20.336;2023-06-01T12:09:13;11.20;94.10
12384;DHT22;6256;63.808;20.336;2023-06-01T12:11:41;12.20;93.70
12384;DHT22;6256;63.808;20.336;2023-06-01T12:14:10;12.80;91.90
12384;DHT22;6256;63.808;20.336;2023-06-01T12:16:57;13.10;90.70
12384;DHT22;6256;63.808;20.336;2023-06-01T12:19:31;13.90;90.10
12384;DHT22;6256;63.808;20.336;2023-06-01T12:21:59;14.50;85.70
12384;DHT22;6256;63.808;20.336;2023-06-01T12:24:29;14.10;86.90
12384;DHT22;6256;63.808;20.336;2023-06-01T12:26:56;13.50;81.80
12384;DHT22;6256;63.808;20.336;2023-06-01T12:29:41;13.90;82.80
12384;DHT22;6256;63.808;20.336;2023-06-01T12:32:08;13.90;78.90
12384;DHT22;6256;63.808;20.336;2023-06-01T12:34:39;13.60;79.70
12384;DHT22;6256;63.808;20.336;2023-06-01T12:37:18;12.80;77.60
12384;DHT22;6256;63.808;20.336;2023-06-01T12:39:54;12.40;82.30
12384;DHT22;6256;63.808;20.336;2023-06-01T12:42:34;11.90;82.40
12384;DHT22;6256;63.808;20.336;2023-06-01T12:45:03;11.00;84.20
12384;DHT22;6256;63.808;20.336;2023-06-01T12:47:38;10.30;84.40
12384;DHT22;6256;63.808;20.336;2023-06-01T12:50:08;9.70;89.20
12384;DHT22;6256;63.808;20.336;2023-06-01T12:52:35;9.40;90.30
12384;DHT22;6256;63.808;20.336;2023-06-01T12:55:01;8.90;90.60
12384;DHT22;6256;63.808;20.336;2023-06-01T12:57:29;8.70;91.60
12384;DHT22;6256;63.808;20.336;2023-06-01T12:59:55;8.40;98.00
12384;DHT22;6256;63.808;20.336;2023-06-01T13:02:21;7.20;99.90
12384;DHT22;6256;63.808;20.336;2023-06-01T13:04:47;6.60;99.90
12384;DHT22;6256;63.808;20.336;2023-06-01T13:07:12;6.20;99.90
12384;DHT22;6256;63.808;20.336;2023-06-01T13:09:38;5.80;99.90
12384;DHT22;6256;63.808;20.336;2023-06-01T13:12:05;5.50;99.90
12384;DHT22;6256;63.808;20.336;2023-06-01T13:14:31;5.60;99.90
12384;DHT22;6256;63.808;20.336;2023-06-01T13:16:56;5.90;99.90
12384;DHT22;6256;63.808;20.336;2023-06-01T13:19:22;5.90;99.90
12384;DHT22;6256;63.808;20.336;2023-06-01T13:21:51;5.90;99.90
12384;DHT22;6256;63.808;20.336;2023-06-01T13:24:17;6.40;99.90
12384;DHT22;6256;63.808;20.336;2023-06-01T13:26:43;7.30;99.90
12384;DHT22;6256;63.808;20.336;2023-06-01T13:29:09;8.20;99.90
12384;DHT22;6256;63.808;20.336;2023-06-01T13:31:35;7.60;99.90
12384;DHT22;6256;63.808;20.336;2023-06-01T13:34:02;6.90;99.90
12384;DHT22;6256;63.808;20.336;2023-06-01T13:36:29;6.50;99.90
12384;DHT22;6256;63.808;20.336;2023-06-01T13:38:55;6.40;99.90
12384;DHT22;6256;63.808;20.336;2023-06-01T13:41:22;6.70;99.90
12384;DHT22;6256;63.808;20.336;2023-06-01T13:43:48;6.70;99.90
12384;DHT22;6256;63.808;20.336;2023-06-01T13:46:14;7.10;99.90
12384;DHT22;6256;63.808;20.336;2023-06-01T13:48:40;6.80;99.90
12384;DHT22;6256;63.808;20.336;2023-06-01T13:51:06;7.20;99.90
12384;DHT22;6256;63.808;20.336;2023-06-01T13:53:32;8.10;99.90
12384;DHT22;6256;63.808;20.336;2023-06-01T13:55:59;7.70;99.90
12384;DHT22;6256;63.808;20.336;2023-06-01T13:58:25;8.50;99.90
12384;DHT22;6256;63.808;20.336;2023-06-01T14:00:50;8.90;99.90
12384;DHT22;6256;63.808;20.336;2023-06-01T14:03:16;9.20;99.90
12384;DHT22;6256;63.808;20.336;2023-06-01T14:05:42;9.90;99.90
12384;DHT22;6256;63.808;20.336;2023-06-01T14:08:08;12.10;99.90
12384;DHT22;6256;63.808;20.336;2023-06-01T14:10:34;11.80;99.90
12384;DHT22;6256;63.808;20.336;2023-06-01T14:13:00;11.80;99.90
12384;DHT22;6256;63.808;20.336;2023-06-01T14:15:27;11.30;99.90
12384;DHT22;6256;63.808;20.336;2023-06-01T14:17:53;10.60;99.90
12384;DHT22;6256;63.808;20.336;2023-06-01T14:20:18;10.00;99.90
12384;DHT22;6256;63.808;20.336;2023-06-01T14:22:44;9.10;99.90
12384;DHT22;6256;63.808;20.336;2023-06-01T14:25:11;8.50;99.90
12384;DHT22;6256;63.808;20.336;2023-06-01T14:27:40;7.50;99.90
12384;DHT22;6256;63.808;20.336;2023-06-01T14:30:06;7.30;99.90
12384;DHT22;6256;63.808;20.336;2023-06-01T14:32:32;6.70;99.90
12384;DHT22;6256;63.808;20.336;2023-06-01T14:34:58;6.70;99.90
12384;DHT22;6256;63.808;20.336;2023-06-01T14:37:24;6.70;99.90
12384;DHT22;6256;63.808;20.336;2023-06-01T14:39:50;6.80;99.90
12384;DHT22;6256;63.808;20.336;2023-06-01T14:42:16;6.80;99.90
12384;DHT22;6256;63.808;20.336;2023-06-01T14:44:42;6.90;99.90
12384;DHT22;6256;63.808;20.336;2023-06-01T14:47:08;6.80;99.90
12384;DHT22;6256;63.808;20.336;2023-06-01T14:49:37;6.70;99.90
12384;DHT22;6256;63.808;20.336;2023-06-01T14:52:03;6.60;99.90
12384;DHT22;6256;63.808;20.336;2023-06-01T14:54:29;6.60;99.90
12384;DHT22;6256;63.808;20.336;2023-06-01T14:56:55;6.40;99.90
12384;DHT22;6256;63.808;20.336;2023-06-01T14:59:20;6.20;99.90
12384;DHT22;6256;63.808;20.336;2023-06-01T15:01:46;6.10;99.90
12384;DHT22;6256;63.808;20.336;2023-06-01T15:04:12;5.80;99.90
12384;DHT22;6256;63.808;20.336;2023-06-01T15:06:38;5.70;99.90
12384;DHT22;6256;63.808;20.336;2023-06-01T15:09:04;5.60;99.90
12384;DHT22;6256;63.808;20.336;2023-06-01T15:11:29;5.80;99.90
12384;DHT22;6256;63.808;20.336;2023-06-01T15:13:55;5.80;99.90
12384;DHT22;6256;63.808;20.336;2023-06-01T15:16:21;5.80;99.90
12384;DHT22;6256;63.808;20.336;2023-06-01T15:18:47;5.80;99.90
12384;DHT22;6256;63.808;20.336;2023-06-01T15:21:12;5.70;99.90
12384;DHT22;6256;63.808;20.336;2023-06-01T15:23:38;5.80;99.90
12384;DHT22;6256;63.808;20.336;2023-06-01T15:26:05;6.00;99.90
12384;DHT22;6256;63.808;20.336;2023-06-01T15:28:31;6.30;99.90
12384;DHT22;6256;63.808;20.336;2023-06-01T15:30:56;6.70;99.90
12384;DHT22;6256;63.808;20.336;2023-06-01T15:33:22;7.40;99.90
12384;DHT22;6256;63.808;20.336;2023-06-01T15:35:48;7.40;99.90
12384;DHT22;6256;63.808;20.336;2023-06-01T15:38:14;7.20;99.90
12384;DHT22;6256;63.808;20.336;2023-06-01T15:40:39;6.90;99.90
12384;DHT22;6256;63.808;20.336;2023-06-01T15:43:05;6.80;99.90
12384;DHT22;6256;63.808;20.336;2023-06-01T15:45:31;6.80;99.90
12384;DHT22;6256;63.808;20.336;2023-06-01T15:47:56;6.80;99.90
12384;DHT22;6256;63.808;20.336;2023-06-01T15:50:22;6.60;99.90
12384;DHT22;6256;63.808;20.336;2023-06-01T15:52:48;6.60;99.90
12384;DHT22;6256;63.808;20.336;2023-06-01T15:55:14;6.60;99.90
12384;DHT22;6256;63.808;20.336;2023-06-01T15:57:39;6.80;99.90
12384;DHT22;6256;63.808;20.336;2023-06-01T16:00:06;6.80;99.90
12384;DHT22;6256;63.808;20.336;2023-06-01T16:02:34;6.80;99.90
12384;DHT22;6256;63.808;20.336;2023-06-01T16:05:00;7.10;99.90
12384;DHT22;6256;63.808;20.336;2023-06-01T16:07:25;7.20;99.90
12384;DHT22;6256;63.808;20.336;2023-06-01T16:09:51;7.50;99.90
12384;DHT22;6256;63.808;20.336;2023-06-01T16:12:17;7.80;99.90
12384;DHT22;6256;63.808;20.336;2023-06-01T16:14:42;8.00;99.90
12384;DHT22;6256;63.808;20.336;2023-06-01T16:17:11;8.00;99.90
12384;DHT22;6256;63.808;20.336;2023-06-01T16:19:40;8.10;99.90
12384;DHT22;6256;63.808;20.336;2023-06-01T16:22:06;8.10;99.90
12384;DHT22;6256;63.808;20.336;2023-06-01T16:24:31;8.10;99.90
12384;DHT22;6256;63.808;20.336;2023-06-01T16:26:57;7.80;99.90
12384;DHT22;6256;63.808;20.336;2023-06-01T16:29:23;8.00;99.90
12384;DHT22;6256;63.808;20.336;2023-06-01T16:31:49;8.20;99.90
12384;DHT22;6256;63.808;20.336;2023-06-01T16:34:15;8.40;99.90
12384;DHT22;6256;63.808;20.336;2023-06-01T16:36:42;9.00;99.90